Time;durP1;ratioP1;P1;durP2;ratioP2;P2;SDS_P1;SDS_P2;PMS_P1;PMS_P2;Temp;Humidity;BMP_temperature;BMP_pressure;BME280_temperature;BME280_humidity;BME280_pressure;Samples;Min_cycle;Max_cycle;Signal;HPM_P1;HPM_P2
2022/10/14 00:01:00;;;;;;;62.35;7.82;;;9.80;99.90;;;;;;6143770;23;20025;-78
2022/10/14 00:03:26;;;;;;;50.90;6.70;;;9.80;99.90;;;;;;6177554;23;20028;-79
2022/10/14 00:05:52;;;;;;;57.13;7.47;;;9.80;99.90;;;;;;6178628;23;20025;-78
2022/10/14 00:08:17;;;;;;;87.15;7.80;;;9.80;99.90;;;;;;6178005;23;20405;-79
2022/10/14 00:10:43;;;;;;;100.47;7.97;;;9.70;99.90;;;;;;6176874;23;20096;-78
2022/10/14 00:13:09;;;;;;;79.40;8.27;;;9.70;99.90;;;;;;6178607;23;20036;-78
2022/10/14 00:15:39;;;;;;;42.80;7.03;;;9.80;99.90;;;;;;6150460;23;20017;-78
2022/10/14 00:18:06;;;;;;;37.05;6.68;;;9.80;99.90;;;;;;6175221;23;20025;-79
2022/10/14 00:20:31;;;;;;;59.58;7.35;;;9.80;99.90;;;;;;6149746;23;20032;-79
2022/10/14 00:22:57;;;;;;;119.90;8.68;;;9.80;99.90;;;;;;6151133;23;20021;-80
2022/10/14 00:25:25;;;;;;;85.20;8.45;;;9.80;99.90;;;;;;6171047;23;20444;-80
2022/10/14 00:27:51;;;;;;;178.00;11.65;;;9.90;99.90;;;;;;6179057;23;20226;-79
2022/10/14 00:30:17;;;;;;;71.18;7.05;;;9.90;99.90;;;;;;6171786;23;20138;-78
2022/10/14 00:32:43;;;;;;;97.80;8.70;;;9.90;99.90;;;;;;6173181;23;20032;-80
2022/10/14 00:35:09;;;;;;;89.30;8.57;;;9.90;99.90;;;;;;6149461;23;20424;-79
2022/10/14 00:37:35;;;;;;;60.53;7.70;;;9.90;99.90;;;;;;6151608;23;20023;-79
2022/10/14 00:40:00;;;;;;;114.07;10.57;;;9.90;99.90;;;;;;6177927;23;20036;-79
2022/10/14 00:42:26;;;;;;;31.40;6.95;;;9.90;99.90;;;;;;6175938;23;20016;-78
2022/10/14 00:45:00;;;;;;;21.80;6.35;;;9.90;99.90;;;;;;6172399;23;20517;-79
2022/10/14 00:47:27;;;;;;;41.50;7.13;;;9.90;99.90;;;;;;6174186;23;20013;-79
2022/10/14 00:49:53;;;;;;;85.63;9.05;;;10.00;99.90;;;;;;6173478;23;20021;-80
2022/10/14 00:52:21;;;;;;;99.35;8.35;;;10.00;99.90;;;;;;6177804;23;20021;-79
2022/10/14 00:54:50;;;;;;;69.78;8.57;;;9.90;99.90;;;;;;6173607;23;20159;-81
2022/10/14 00:57:17;;;;;;;112.00;9.80;;;9.90;99.90;;;;;;6176044;23;20028;-81
2022/10/14 00:59:46;;;;;;;151.02;10.18;;;10.00;99.90;;;;;;6176435;23;20047;-80
2022/10/14 01:02:11;;;;;;;107.30;9.02;;;10.00;99.90;;;;;;6176600;23;20029;-81
2022/10/14 01:04:39;;;;;;;134.68;10.00;;;10.00;99.90;;;;;;6170858;23;20025;-79
2022/10/14 01:07:30;;;;;;;134.43;9.93;;;10.00;99.90;;;;;;6191363;22;20016;-79
2022/10/14 01:10:11;;;;;;;107.78;10.05;;;9.90;99.90;;;;;;6172517;23;20488;-79
2022/10/14 01:13:08;;;;;;;61.72;7.30;;;9.90;99.90;;;;;;6150425;23;20356;-79
2022/10/14 01:15:39;;;;;;;71.28;7.50;;;9.80;99.90;;;;;;6145104;23;20347;-78
2022/10/14 01:18:05;;;;;;;87.10;7.25;;;9.80;99.90;;;;;;6177857;23;20108;-80
2022/10/14 01:20:50;;;;;;;86.25;8.40;;;9.70;99.90;;;;;;6174820;23;20048;-80
2022/10/14 01:23:37;;;;;;;43.70;6.47;;;9.70;99.90;;;;;;6149284;23;20025;-81
2022/10/14 01:26:45;;;;;;;209.48;12.27;;;9.60;99.90;;;;;;6148539;23;20040;-80
2022/10/14 01:29:44;;;;;;;147.82;11.15;;;9.60;99.90;;;;;;6130937;23;20033;-80
2022/10/14 01:32:22;;;;;;;255.88;13.65;;;9.60;99.90;;;;;;6171778;23;20033;-79
2022/10/14 01:35:10;;;;;;;108.43;10.38;;;9.60;99.90;;;;;;6150566;23;20021;-78
2022/10/14 01:37:44;;;;;;;232.45;14.07;;;9.60;99.90;;;;;;6174645;23;20410;-80
2022/10/14 01:40:33;;;;;;;92.13;8.70;;;9.70;99.90;;;;;;6151095;23;20017;-79
2022/10/14 01:43:01;;;;;;;403.77;20.75;;;9.70;99.90;;;;;;6179119;23;20018;-79
2022/10/14 01:45:29;;;;;;;302.27;15.65;;;9.60;99.90;;;;;;6175808;23;20025;-80
2022/10/14 01:47:57;;;;;;;281.05;16.52;;;9.60;99.90;;;;;;6172430;23;20381;-80
2022/10/14 01:50:26;;;;;;;86.32;9.45;;;9.60;99.90;;;;;;6177141;23;20476;-80
2022/10/14 01:53:03;;;;;;;363.83;19.52;;;9.70;99.90;;;;;;6153943;23;20021;-80
2022/10/14 01:55:34;;;;;;;166.82;13.57;;;9.60;99.90;;;;;;6171205;23;20359;-80
2022/10/14 01:58:01;;;;;;;125.82;12.05;;;9.50;99.90;;;;;;6179990;23;20021;-80
2022/10/14 02:00:26;;;;;;;74.93;10.20;;;9.50;99.90;;;;;;6173772;23;20365;-81
2022/10/14 02:02:52;;;;;;;131.00;12.88;;;9.40;99.90;;;;;;6146637;23;20027;-82
2022/10/14 02:05:30;;;;;;;73.38;11.68;;;9.40;99.90;;;;;;6151986;23;20013;-81
2022/10/14 02:08:09;;;;;;;76.00;10.02;;;9.40;99.90;;;;;;6180538;23;20127;-81
2022/10/14 02:10:35;;;;;;;166.48;14.88;;;9.40;99.90;;;;;;6142976;23;20017;-81
2022/10/14 02:13:31;;;;;;;91.25;11.35;;;9.30;99.90;;;;;;6172596;23;20116;-81
2022/10/14 02:16:25;;;;;;;215.77;15.60;;;9.40;99.90;;;;;;6177859;23;20469;-81
2022/10/14 02:19:01;;;;;;;276.23;17.23;;;9.40;99.90;;;;;;6176258;23;20025;-80
2022/10/14 02:21:49;;;;;;;226.88;15.60;;;9.30;99.90;;;;;;6177747;23;20529;-82
2022/10/14 02:24:19;;;;;;;205.07;16.65;;;9.30;99.90;;;;;;6146531;23;20075;-81
2022/10/14 02:26:48;;;;;;;117.43;13.52;;;9.30;99.90;;;;;;6180460;23;20067;-79
2022/10/14 02:29:16;;;;;;;116.05;14.23;;;9.30;99.90;;;;;;6179330;23;20017;-81
2022/10/14 02:31:44;;;;;;;106.03;13.85;;;9.30;99.90;;;;;;6176913;23;20076;-80
2022/10/14 02:34:13;;;;;;;168.18;18.25;;;9.30;99.90;;;;;;6156456;23;20052;-80
2022/10/14 02:36:43;;;;;;;85.57;14.02;;;9.20;99.90;;;;;;6170274;23;20025;-81
2022/10/14 02:39:12;;;;;;;154.55;16.42;;;9.20;99.90;;;;;;6186636;23;20021;-81
2022/10/14 02:41:38;;;;;;;147.05;16.50;;;9.20;99.90;;;;;;6193512;22;20017;-81
2022/10/14 02:44:05;;;;;;;212.27;18.60;;;9.20;99.90;;;;;;6179000;23;20047;-80
2022/10/14 02:46:32;;;;;;;224.65;20.75;;;9.20;99.90;;;;;;6179046;23;20017;-81
2022/10/14 02:48:58;;;;;;;152.45;16.83;;;9.20;99.90;;;;;;6178261;23;20021;-81
2022/10/14 02:51:24;;;;;;;148.82;18.40;;;9.20;99.90;;;;;;6147035;23;20017;-80
2022/10/14 02:53:49;;;;;;;162.52;18.23;;;9.20;99.90;;;;;;6172563;23;20035;-79
2022/10/14 02:56:16;;;;;;;172.40;18.63;;;9.20;99.90;;;;;;6178692;23;20256;-81
2022/10/14 02:58:42;;;;;;;110.80;17.45;;;9.20;99.90;;;;;;6177125;23;20031;-80
2022/10/14 03:01:08;;;;;;;275.17;26.00;;;9.30;99.90;;;;;;6149195;23;20100;-81
2022/10/14 03:03:34;;;;;;;222.77;22.15;;;9.20;99.90;;;;;;6152104;23;20017;-81
2022/10/14 03:05:59;;;;;;;198.95;21.05;;;9.30;99.90;;;;;;6150920;23;20408;-81
2022/10/14 03:08:25;;;;;;;275.17;25.50;;;9.30;99.90;;;;;;6179389;23;20766;-82
2022/10/14 03:10:51;;;;;;;180.15;22.48;;;9.30;99.90;;;;;;6145361;23;20025;-82
2022/10/14 03:13:16;;;;;;;259.80;26.38;;;9.40;99.90;;;;;;6144719;23;20055;-82
2022/10/14 03:15:42;;;;;;;281.27;26.85;;;9.40;99.90;;;;;;6151552;23;20067;-82
2022/10/14 03:18:08;;;;;;;286.25;29.70;;;9.40;99.90;;;;;;6144938;23;20029;-83
2022/10/14 03:20:34;;;;;;;229.65;26.80;;;9.50;99.90;;;;;;6144418;23;20021;-82
2022/10/14 03:22:59;;;;;;;269.23;27.83;;;9.60;99.90;;;;;;6153124;23;20275;-83
2022/10/14 03:25:26;;;;;;;286.85;30.73;;;9.60;99.90;;;;;;6145777;23;20056;-82
2022/10/14 03:27:52;;;;;;;161.27;25.63;;;9.60;99.90;;;;;;6174169;23;20056;-81
2022/10/14 03:30:18;;;;;;;441.90;37.53;;;9.60;99.90;;;;;;6177321;23;20029;-81
2022/10/14 03:32:43;;;;;;;268.48;29.98;;;9.60;99.90;;;;;;6147671;23;20033;-82
2022/10/14 03:35:09;;;;;;;214.18;26.40;;;9.70;99.90;;;;;;6144722;23;20025;-81
2022/10/14 03:37:35;;;;;;;139.15;22.10;;;9.70;99.90;;;;;;6149116;23;20024;-82
2022/10/14 03:40:01;;;;;;;240.48;27.75;;;9.80;99.90;;;;;;6179336;23;20036;-82
2022/10/14 03:42:26;;;;;;;208.20;27.20;;;9.80;99.90;;;;;;6177335;23;20021;-81
2022/10/14 03:44:52;;;;;;;189.18;24.98;;;9.90;99.90;;;;;;6152159;23;20045;-81
2022/10/14 03:47:18;;;;;;;356.83;32.25;;;9.90;99.90;;;;;;6146525;23;20041;-81
2022/10/14 03:49:44;;;;;;;164.88;22.45;;;9.90;99.90;;;;;;6167450;23;20033;-81
2022/10/14 03:52:09;;;;;;;178.55;22.38;;;10.10;99.90;;;;;;6173052;23;20033;-81
2022/10/14 03:54:35;;;;;;;289.10;23.30;;;10.10;99.90;;;;;;6150510;23;20033;-81
2022/10/14 03:57:01;;;;;;;161.02;17.95;;;10.20;99.90;;;;;;6176193;23;20108;-82
2022/10/14 03:59:27;;;;;;;190.93;19.10;;;10.30;99.90;;;;;;6178601;23;20049;-80
2022/10/14 04:01:52;;;;;;;214.80;18.77;;;10.30;99.90;;;;;;6173047;23;20032;-81
2022/10/14 04:04:18;;;;;;;105.20;14.93;;;10.40;99.90;;;;;;6145269;23;20032;-82
2022/10/14 04:06:44;;;;;;;191.48;17.08;;;10.40;99.90;;;;;;6153999;23;20063;-82
2022/10/14 04:09:10;;;;;;;228.23;18.20;;;10.40;99.90;;;;;;6178876;23;20045;-82
2022/10/14 04:11:35;;;;;;;188.32;17.95;;;10.40;99.90;;;;;;6153370;23;20017;-82
2022/10/14 04:14:01;;;;;;;203.25;19.13;;;10.50;99.90;;;;;;6154161;23;20476;-81
2022/10/14 04:16:27;;;;;;;178.07;17.98;;;10.40;99.90;;;;;;6124593;23;20075;-81
2022/10/14 04:18:53;;;;;;;256.35;21.17;;;10.50;99.90;;;;;;6150620;23;20029;-80
2022/10/14 04:21:19;;;;;;;290.92;25.02;;;10.40;99.90;;;;;;6149250;23;20036;-80
2022/10/14 04:23:45;;;;;;;296.23;24.90;;;10.50;99.90;;;;;;6151388;23;20397;-80
2022/10/14 04:26:11;;;;;;;286.05;26.05;;;10.50;99.90;;;;;;6175754;23;20108;-79
2022/10/14 04:28:37;;;;;;;302.15;25.80;;;10.40;99.90;;;;;;6150918;23;20029;-80
2022/10/14 04:31:04;;;;;;;333.08;26.10;;;10.50;99.90;;;;;;6172267;23;20029;-82
2022/10/14 04:33:30;;;;;;;232.88;20.23;;;10.40;99.90;;;;;;6176038;23;20024;-82
2022/10/14 04:36:01;;;;;;;214.00;19.77;;;10.40;99.90;;;;;;6178505;23;20051;-82
2022/10/14 04:38:27;;;;;;;302.48;23.13;;;10.40;99.90;;;;;;6176878;23;20024;-82
2022/10/14 04:40:53;;;;;;;282.33;22.45;;;10.30;99.90;;;;;;6175739;23;20033;-82
2022/10/14 04:43:20;;;;;;;326.67;24.25;;;10.30;99.90;;;;;;6176422;23;20029;-80
2022/10/14 04:45:46;;;;;;;218.50;17.65;;;10.30;99.90;;;;;;6174991;23;20025;-81
2022/10/14 04:48:12;;;;;;;240.77;18.20;;;10.20;99.90;;;;;;6173717;23;20029;-79
2022/10/14 04:50:37;;;;;;;239.35;18.70;;;10.20;99.90;;;;;;6179740;23;20095;-81
2022/10/14 04:53:03;;;;;;;218.95;17.70;;;10.10;99.90;;;;;;6174904;23;20108;-82
2022/10/14 04:55:29;;;;;;;240.48;17.52;;;10.00;99.90;;;;;;6176478;23;20047;-81
2022/10/14 04:57:54;;;;;;;238.98;17.17;;;10.00;99.90;;;;;;6176788;23;20025;-81
2022/10/14 05:00:20;;;;;;;281.80;21.17;;;10.00;99.90;;;;;;6150973;23;20786;-81
2022/10/14 05:02:46;;;;;;;220.57;16.67;;;9.90;99.90;;;;;;6169286;23;20021;-81
2022/10/14 05:05:23;;;;;;;224.30;18.35;;;9.90;99.90;;;;;;6135154;23;20020;-81
2022/10/14 05:07:48;;;;;;;250.68;17.92;;;9.90;99.90;;;;;;6135861;23;20810;-80
2022/10/14 05:10:14;;;;;;;262.35;19.27;;;9.90;99.90;;;;;;6176880;23;20254;-81
2022/10/14 05:12:43;;;;;;;191.57;17.98;;;9.80;99.90;;;;;;6149777;23;20021;-79
2022/10/14 05:15:10;;;;;;;188.30;16.98;;;9.80;99.90;;;;;;6149859;23;20028;-81
2022/10/14 05:17:43;;;;;;;262.33;20.73;;;9.80;99.90;;;;;;6149597;23;20025;-81
2022/10/14 05:20:19;;;;;;;265.63;21.35;;;9.80;99.90;;;;;;6178043;23;20417;-82
2022/10/14 05:22:45;;;;;;;208.98;21.70;;;9.80;99.90;;;;;;6147904;23;20021;-77
2022/10/14 05:25:11;;;;;;;264.98;24.92;;;9.80;99.90;;;;;;6162715;23;20183;-82
2022/10/14 05:27:37;;;;;;;328.65;24.55;;;9.80;99.90;;;;;;6178205;23;20556;-81
2022/10/14 05:30:03;;;;;;;226.23;21.10;;;9.80;99.90;;;;;;6153274;23;20028;-80
2022/10/14 05:32:29;;;;;;;198.52;20.00;;;9.80;99.90;;;;;;6179480;23;20015;-81
2022/10/14 05:34:54;;;;;;;133.70;17.15;;;9.70;99.90;;;;;;6154151;23;20021;-76
2022/10/14 05:37:20;;;;;;;239.32;22.20;;;9.80;99.90;;;;;;6197147;23;20021;-79
2022/10/14 05:39:46;;;;;;;228.23;21.60;;;9.80;99.90;;;;;;6186461;23;20040;-78
2022/10/14 05:42:11;;;;;;;281.15;22.88;;;9.70;99.90;;;;;;6183534;23;20476;-78
2022/10/14 05:44:37;;;;;;;302.77;24.38;;;9.80;99.90;;;;;;6184680;23;20021;-78
2022/10/14 05:47:03;;;;;;;127.63;18.58;;;9.80;99.90;;;;;;6178822;23;20029;-78
2022/10/14 05:49:29;;;;;;;277.02;24.58;;;9.80;99.90;;;;;;6171640;23;20017;-71
2022/10/14 05:51:54;;;;;;;165.68;20.77;;;9.90;99.90;;;;;;6179687;23;20433;-80
2022/10/14 05:54:20;;;;;;;266.15;25.13;;;9.90;99.90;;;;;;6179765;23;25623;-80
2022/10/14 05:56:46;;;;;;;275.55;25.55;;;9.90;99.90;;;;;;6179470;23;20020;-79
2022/10/14 05:59:12;;;;;;;208.93;23.35;;;9.90;99.90;;;;;;6178717;23;20275;-79
2022/10/14 06:01:39;;;;;;;249.35;27.45;;;9.80;99.90;;;;;;6175172;23;20017;-79
2022/10/14 06:04:04;;;;;;;281.05;28.55;;;10.00;99.90;;;;;;6151796;23;20025;-77
2022/10/14 06:06:30;;;;;;;301.70;28.98;;;9.90;99.90;;;;;;6149629;23;20430;-79
2022/10/14 06:08:56;;;;;;;204.23;27.55;;;9.90;99.90;;;;;;6150780;23;20021;-80
2022/10/14 06:11:22;;;;;;;212.55;27.63;;;9.90;99.90;;;;;;6178063;23;20497;-81
2022/10/14 06:13:47;;;;;;;210.07;29.13;;;10.00;99.90;;;;;;6179789;23;20051;-80
2022/10/14 06:16:13;;;;;;;241.18;36.33;;;10.00;99.90;;;;;;6149268;23;20025;-80
2022/10/14 06:18:39;;;;;;;190.27;33.60;;;10.00;99.90;;;;;;6177557;23;20021;-80
2022/10/14 06:21:06;;;;;;;294.15;39.05;;;9.90;99.90;;;;;;6174176;23;20302;-80
2022/10/14 06:23:32;;;;;;;251.68;37.00;;;10.00;99.90;;;;;;6178042;23;20083;-80
2022/10/14 06:25:58;;;;;;;169.90;34.75;;;9.90;99.90;;;;;;6173650;23;20092;-78
2022/10/14 06:28:24;;;;;;;175.80;36.30;;;9.90;99.90;;;;;;6148371;23;20013;-79
2022/10/14 06:30:54;;;;;;;195.05;37.17;;;10.00;99.90;;;;;;6162594;23;20025;-81
2022/10/14 06:33:20;;;;;;;183.27;36.10;;;10.00;99.90;;;;;;6178616;23;20020;-84
2022/10/14 06:35:47;;;;;;;247.20;38.35;;;10.00;99.90;;;;;;6179243;23;20029;-83
2022/10/14 06:38:13;;;;;;;166.23;35.72;;;10.00;99.90;;;;;;6180520;23;20460;-81
2022/10/14 06:40:39;;;;;;;186.50;37.15;;;10.00;99.90;;;;;;6151237;23;20029;-82
2022/10/14 06:43:35;;;;;;;156.68;35.08;;;10.00;99.90;;;;;;6160090;23;20048;-83
2022/10/14 06:46:02;;;;;;;136.25;32.78;;;10.10;99.90;;;;;;6150534;23;20187;-83
2022/10/14 06:48:28;;;;;;;140.32;33.63;;;10.10;99.90;;;;;;6151424;23;20104;-84
2022/10/14 06:50:54;;;;;;;106.03;30.30;;;10.10;99.90;;;;;;6176697;23;20445;-85
2022/10/14 06:53:20;;;;;;;200.25;33.83;;;10.10;99.90;;;;;;6151199;23;20032;-85
2022/10/14 06:55:45;;;;;;;189.32;34.55;;;10.10;99.90;;;;;;6150221;23;20028;-73
2022/10/14 06:58:12;;;;;;;122.43;30.60;;;10.10;99.90;;;;;;6171794;23;20018;-74
2022/10/14 07:00:38;;;;;;;150.32;30.60;;;10.20;99.90;;;;;;6174237;23;20025;-73
2022/10/14 07:03:04;;;;;;;132.55;30.23;;;10.20;99.90;;;;;;6174815;23;20096;-74
2022/10/14 07:05:29;;;;;;;156.55;30.00;;;10.20;99.90;;;;;;6177880;23;20025;-75
2022/10/14 07:07:57;;;;;;;123.90;28.38;;;10.20;99.90;;;;;;6164111;23;20235;-76
2022/10/14 07:10:25;;;;;;;97.75;24.63;;;10.20;99.90;;;;;;6164822;23;20016;-73
2022/10/14 07:12:55;;;;;;;96.68;25.60;;;10.20;99.90;;;;;;6152408;23;20516;-73
2022/10/14 07:15:20;;;;;;;112.45;26.17;;;10.20;99.90;;;;;;6178862;23;20031;-73
2022/10/14 07:17:46;;;;;;;108.25;25.17;;;10.20;99.90;;;;;;6179699;23;20099;-73
2022/10/14 07:20:12;;;;;;;94.55;25.23;;;10.20;99.90;;;;;;6177315;23;20488;-75
2022/10/14 07:22:38;;;;;;;87.20;24.38;;;10.20;99.90;;;;;;6179334;23;20565;-74
2022/10/14 07:25:04;;;;;;;112.63;26.45;;;10.20;99.90;;;;;;6178950;23;20083;-73
2022/10/14 07:27:31;;;;;;;74.80;22.35;;;10.20;99.90;;;;;;6178498;23;20013;-74
2022/10/14 07:29:56;;;;;;;77.47;24.02;;;10.20;99.90;;;;;;6173412;23;20615;-74
2022/10/14 07:32:22;;;;;;;87.75;23.55;;;10.20;99.90;;;;;;6177321;23;20056;-73
2022/10/14 07:34:48;;;;;;;69.85;22.23;;;10.20;99.90;;;;;;6176363;23;20096;-73
2022/10/14 07:37:14;;;;;;;64.30;21.52;;;10.20;99.90;;;;;;6177664;23;20029;-74
2022/10/14 07:39:39;;;;;;;54.38;21.38;;;10.30;99.90;;;;;;6149586;23;20028;-74
2022/10/14 07:42:05;;;;;;;58.67;21.27;;;10.30;99.90;;;;;;6177664;23;20398;-74
2022/10/14 07:44:31;;;;;;;71.40;22.73;;;10.30;99.90;;;;;;6152298;23;20106;-73
2022/10/14 07:46:58;;;;;;;64.97;21.38;;;10.30;99.90;;;;;;6175747;23;20103;-79
2022/10/14 07:49:23;;;;;;;56.95;21.58;;;10.40;99.90;;;;;;6185810;23;20040;-82
2022/10/14 07:51:49;;;;;;;55.63;21.75;;;10.40;99.90;;;;;;6184829;23;20029;-83
2022/10/14 07:54:22;;;;;;;56.78;20.80;;;10.40;99.90;;;;;;6180331;23;20081;-83
2022/10/14 07:56:48;;;;;;;61.63;22.42;;;10.40;99.90;;;;;;6183677;23;20028;-83
2022/10/14 07:59:15;;;;;;;52.30;20.30;;;10.50;99.90;;;;;;6156412;23;20029;-85
2022/10/14 08:01:46;;;;;;;47.40;19.98;;;10.50;99.90;;;;;;6183485;23;20025;-84
2022/10/14 08:04:11;;;;;;;48.67;19.70;;;10.50;99.90;;;;;;6157492;23;20108;-84
2022/10/14 08:06:37;;;;;;;51.95;20.60;;;10.50;99.90;;;;;;6177585;23;20382;-84
2022/10/14 08:09:05;;;;;;;50.47;20.27;;;10.60;99.90;;;;;;6152059;23;20127;-83
2022/10/14 08:11:30;;;;;;;56.03;20.30;;;10.60;99.90;;;;;;6178767;23;20545;-74
2022/10/14 08:13:57;;;;;;;54.05;20.10;;;10.70;99.90;;;;;;6177706;23;20021;-72
2022/10/14 08:16:25;;;;;;;52.33;21.17;;;10.70;99.90;;;;;;6173186;23;20315;-73
2022/10/14 08:18:52;;;;;;;64.07;22.25;;;10.70;99.90;;;;;;6149167;23;20460;-79
2022/10/14 08:21:19;;;;;;;59.72;21.92;;;10.70;99.90;;;;;;6175725;23;20032;-80
2022/10/14 08:23:45;;;;;;;63.47;23.73;;;10.80;99.90;;;;;;6151504;23;20017;-80
2022/10/14 08:26:28;;;;;;;71.38;24.85;;;10.70;99.90;;;;;;6178466;23;20028;-76
2022/10/14 08:28:54;;;;;;;64.78;24.00;;;10.80;99.90;;;;;;6177584;23;20104;-81
2022/10/14 08:31:20;;;;;;;55.17;22.88;;;10.80;99.90;;;;;;6177983;23;20053;-79
2022/10/14 08:33:46;;;;;;;58.28;24.80;;;10.80;99.90;;;;;;6178445;23;20036;-79
2022/10/14 08:36:12;;;;;;;62.70;25.50;;;10.90;99.90;;;;;;6151830;23;20099;-72
2022/10/14 08:38:38;;;;;;;60.38;23.05;;;10.80;99.90;;;;;;6186395;23;20028;-75
2022/10/14 08:41:12;;;;;;;61.10;23.98;;;10.90;99.90;;;;;;6195164;23;20021;-77
2022/10/14 08:43:44;;;;;;;62.92;24.05;;;11.00;99.90;;;;;;6186658;23;20720;-76
2022/10/14 08:46:33;;;;;;;62.90;25.05;;;11.00;99.90;;;;;;6189331;23;20068;-76
2022/10/14 08:49:08;;;;;;;64.50;25.15;;;11.00;99.90;;;;;;6134480;23;20023;-72
2022/10/14 08:51:35;;;;;;;69.72;26.33;;;11.10;99.90;;;;;;6175833;23;20516;-69
2022/10/14 08:54:09;;;;;;;68.13;25.15;;;11.10;99.90;;;;;;6178742;23;20017;-71
2022/10/14 08:56:36;;;;;;;65.63;25.60;;;11.10;99.90;;;;;;6177068;23;20013;-70
2022/10/14 08:59:12;;;;;;;67.85;25.58;;;11.20;99.90;;;;;;6178505;23;20021;-72
2022/10/14 09:01:50;;;;;;;67.07;25.80;;;11.20;99.90;;;;;;6179165;23;20092;-73
2022/10/14 09:04:16;;;;;;;69.38;25.85;;;11.20;99.90;;;;;;6177794;23;20092;-74
2022/10/14 09:06:45;;;;;;;60.55;25.25;;;11.30;99.90;;;;;;6178454;23;20055;-69
2022/10/14 09:09:38;;;;;;;66.80;25.60;;;11.40;99.90;;;;;;6180099;23;20021;-72
2022/10/14 09:12:11;;;;;;;64.70;24.63;;;11.50;99.90;;;;;;6177727;23;20027;-71
2022/10/14 09:14:42;;;;;;;62.47;25.17;;;11.40;99.90;;;;;;6179547;23;20497;-70
2022/10/14 09:17:13;;;;;;;65.10;26.13;;;11.50;99.90;;;;;;6177592;23;20044;-71
2022/10/14 09:19:49;;;;;;;57.78;24.17;;;11.60;99.90;;;;;;6179846;23;20044;-71
2022/10/14 09:22:14;;;;;;;67.55;25.63;;;11.60;99.90;;;;;;6180143;23;20469;-71
2022/10/14 09:24:43;;;;;;;63.63;24.77;;;11.60;99.90;;;;;;6180835;23;20024;-70
2022/10/14 09:27:23;;;;;;;65.93;23.88;;;11.70;99.90;;;;;;6178991;23;20024;-70
2022/10/14 09:29:53;;;;;;;61.42;25.17;;;11.70;99.90;;;;;;6179951;23;20021;-70
2022/10/14 09:32:53;;;;;;;62.38;25.40;;;11.80;99.90;;;;;;6178633;23;20025;-70
2022/10/14 09:35:26;;;;;;;61.25;23.85;;;11.70;99.90;;;;;;6154710;23;20017;-70
2022/10/14 09:37:52;;;;;;;67.45;24.80;;;11.70;99.90;;;;;;6178310;23;20031;-71
2022/10/14 09:40:50;;;;;;;71.15;25.17;;;11.80;99.90;;;;;;6178338;23;20048;-70
2022/10/14 09:43:23;;;;;;;63.72;23.67;;;11.80;99.90;;;;;;6178183;23;20096;-69
2022/10/14 09:46:00;;;;;;;66.93;23.95;;;11.80;99.90;;;;;;6179104;23;20020;-70
2022/10/14 09:48:50;;;;;;;62.95;23.45;;;11.80;99.90;;;;;;6177613;23;20024;-70
2022/10/14 09:51:20;;;;;;;62.83;22.95;;;11.80;99.90;;;;;;6179793;23;20493;-72
2022/10/14 09:53:50;;;;;;;67.10;23.98;;;11.90;99.90;;;;;;6181372;23;20013;-71
2022/10/14 09:56:31;;;;;;;63.85;24.13;;;11.90;99.90;;;;;;6180188;23;20100;-71
2022/10/14 09:58:57;;;;;;;67.97;24.35;;;11.90;99.90;;;;;;6180637;23;20017;-71
2022/10/14 10:01:39;;;;;;;62.05;22.30;;;12.00;99.90;;;;;;6174639;23;20116;-71
2022/10/14 10:04:23;;;;;;;59.58;21.67;;;12.10;99.90;;;;;;6150018;23;20021;-71
2022/10/14 10:06:52;;;;;;;57.95;21.42;;;12.10;99.90;;;;;;6178102;23;20036;-71
2022/10/14 10:09:18;;;;;;;55.45;21.17;;;12.10;99.90;;;;;;6178895;23;20028;-70
2022/10/14 10:11:44;;;;;;;49.10;19.65;;;12.10;99.90;;;;;;6153350;23;20024;-71
2022/10/14 10:14:31;;;;;;;51.63;20.67;;;12.20;99.90;;;;;;6179905;23;20021;-71
2022/10/14 10:17:09;;;;;;;40.70;17.38;;;12.20;99.90;;;;;;6174958;23;20035;-69
2022/10/14 10:19:47;;;;;;;47.65;17.08;;;12.30;99.90;;;;;;6175910;23;20120;-74
2022/10/14 10:22:25;;;;;;;45.92;17.60;;;12.30;99.90;;;;;;6146693;23;20120;-75
2022/10/14 10:25:00;;;;;;;42.03;16.20;;;12.30;99.90;;;;;;6179460;23;20075;-75
2022/10/14 10:27:30;;;;;;;42.97;15.30;;;12.40;99.90;;;;;;6148726;23;20029;-69
2022/10/14 10:29:55;;;;;;;37.95;16.67;;;12.40;99.90;;;;;;6176021;23;20025;-70
2022/10/14 10:32:44;;;;;;;40.60;15.90;;;12.40;99.90;;;;;;6178650;23;20575;-80
2022/10/14 10:35:25;;;;;;;40.65;15.85;;;12.50;99.90;;;;;;6134628;23;20031;-83
2022/10/14 10:38:10;;;;;;;38.63;15.63;;;12.50;99.90;;;;;;6174708;23;20028;-73
2022/10/14 10:40:46;;;;;;;39.42;16.33;;;12.50;99.90;;;;;;6175851;23;20025;-74
2022/10/14 10:43:35;;;;;;;33.72;13.43;;;12.70;99.90;;;;;;6147528;23;20544;-72
2022/10/14 10:46:16;;;;;;;32.63;14.40;;;12.70;99.90;;;;;;6166274;23;20468;-71
2022/10/14 10:48:57;;;;;;;30.33;13.50;;;12.80;99.90;;;;;;6149272;23;20083;-72
2022/10/14 10:51:53;;;;;;;34.35;14.85;;;12.90;99.90;;;;;;6175295;23;20021;-73
2022/10/14 10:54:34;;;;;;;33.42;14.45;;;12.90;99.90;;;;;;6177087;23;20100;-72
2022/10/14 10:57:14;;;;;;;26.98;11.85;;;12.90;99.90;;;;;;6160134;23;20039;-70
2022/10/14 11:00:07;;;;;;;25.17;12.07;;;13.00;99.90;;;;;;6136130;23;20394;-73
2022/10/14 11:02:33;;;;;;;23.15;11.63;;;13.00;99.90;;;;;;6172531;23;20028;-74
2022/10/14 11:05:08;;;;;;;22.80;11.00;;;13.00;99.90;;;;;;6174290;23;20502;-79
2022/10/14 11:14:36;;;;;;;21.67;10.30;;;13.00;99.90;;;;;;6175458;23;20033;-73
2022/10/14 11:17:23;;;;;;;24.65;10.63;;;13.00;99.90;;;;;;6177482;23;20033;-73
2022/10/14 11:20:00;;;;;;;24.13;10.23;;;13.00;99.90;;;;;;6177196;23;20095;-72
2022/10/14 11:22:49;;;;;;;21.55;10.20;;;13.00;99.90;;;;;;6175210;23;20048;-72
2022/10/14 11:25:50;;;;;;;21.52;9.98;;;13.00;99.90;;;;;;6175676;23;20028;-72
2022/10/14 11:28:37;;;;;;;16.52;8.88;;;13.00;99.90;;;;;;6150521;23;20025;-71
2022/10/14 11:31:15;;;;;;;19.02;9.75;;;13.00;99.90;;;;;;6175989;23;20100;-73
2022/10/14 11:34:23;;;;;;;20.15;9.45;;;13.00;99.90;;;;;;6151066;23;20454;-70
2022/10/14 11:37:10;;;;;;;17.30;9.00;;;13.00;99.90;;;;;;6176139;23;20051;-72
2022/10/14 11:40:02;;;;;;;18.52;8.93;;;13.00;99.90;;;;;;6179949;23;20101;-72
2022/10/14 11:42:56;;;;;;;15.48;8.65;;;13.00;99.90;;;;;;6141317;23;20369;-72
2022/10/14 11:45:40;;;;;;;16.75;8.82;;;13.00;99.90;;;;;;6183842;23;20021;-67
2022/10/14 11:48:27;;;;;;;17.33;8.68;;;12.90;99.90;;;;;;6176787;23;20025;-71
2022/10/14 11:51:01;;;;;;;18.95;9.18;;;12.90;99.90;;;;;;6175926;23;20352;-70
2022/10/14 11:53:38;;;;;;;19.42;9.77;;;13.00;99.90;;;;;;6173337;23;20120;-69
2022/10/14 11:56:13;;;;;;;17.92;9.23;;;13.10;99.90;;;;;;6172774;23;20376;-70
2022/10/14 11:58:42;;;;;;;18.02;8.88;;;13.10;99.90;;;;;;6176065;23;20017;-71
2022/10/14 12:01:10;;;;;;;21.73;9.73;;;13.10;99.90;;;;;;6175242;23;20080;-70
2022/10/14 12:03:48;;;;;;;17.17;9.05;;;13.10;99.90;;;;;;6175688;23;20061;-72
2022/10/14 12:06:18;;;;;;;21.55;10.75;;;13.10;99.90;;;;;;6176681;23;20017;-71
2022/10/14 12:09:02;;;;;;;17.27;8.98;;;13.20;99.90;;;;;;6179152;23;20025;-71
2022/10/14 12:11:36;;;;;;;17.77;8.48;;;13.10;99.90;;;;;;6176966;23;20032;-72
2022/10/14 12:14:22;;;;;;;16.30;8.18;;;13.10;99.90;;;;;;6145871;23;20052;-70
2022/10/14 12:16:48;;;;;;;17.80;8.07;;;13.10;99.90;;;;;;6175332;23;20036;-67
2022/10/14 12:19:22;;;;;;;18.83;8.63;;;13.10;99.90;;;;;;6175609;23;20532;-68
2022/10/14 12:22:17;;;;;;;18.38;9.43;;;13.10;99.90;;;;;;6178693;23;20017;-68
2022/10/14 12:24:51;;;;;;;18.23;9.23;;;13.00;99.90;;;;;;6150457;23;20017;-67
2022/10/14 12:27:18;;;;;;;19.15;9.70;;;13.10;99.90;;;;;;6177193;23;20413;-69
2022/10/14 12:29:50;;;;;;;20.27;10.18;;;13.10;99.90;;;;;;6150237;23;20025;-69
2022/10/14 12:32:16;;;;;;;20.83;8.80;;;13.10;99.90;;;;;;6175925;23;20111;-69
2022/10/14 12:34:52;;;;;;;22.30;10.27;;;13.20;99.90;;;;;;6174820;23;20029;-72
2022/10/14 12:37:33;;;;;;;22.27;10.35;;;13.20;99.90;;;;;;6149363;23;20021;-70
2022/10/14 12:40:02;;;;;;;18.70;9.68;;;13.20;99.90;;;;;;6174672;23;20036;-73
2022/10/14 12:42:59;;;;;;;20.60;10.00;;;13.20;99.90;;;;;;6176166;23;20079;-71
2022/10/14 12:45:27;;;;;;;21.15;10.48;;;13.20;99.90;;;;;;6101462;23;20017;-72
2022/10/14 12:48:20;;;;;;;20.52;9.60;;;13.30;99.90;;;;;;6150985;23;20025;-72
2022/10/14 12:50:47;;;;;;;19.17;9.45;;;13.30;99.90;;;;;;6176692;23;20021;-72
2022/10/14 12:53:30;;;;;;;17.90;9.82;;;13.40;99.90;;;;;;6175578;23;20088;-72
2022/10/14 12:56:00;;;;;;;18.60;8.98;;;13.40;99.90;;;;;;6176678;23;20465;-70